createdAt,value
2023-05-10T00:02:05.199Z,14.68
2023-05-10T00:04:34.255Z,14.73
2023-05-10T00:07:03.272Z,14.70
2023-05-10T00:09:29.962Z,14.67
2023-05-10T00:11:56.604Z,14.65
2023-05-10T00:14:23.324Z,14.63
2023-05-10T00:16:50.138Z,14.58
2023-05-10T00:19:19.514Z,14.61
2023-05-10T00:21:48.417Z,14.61
2023-05-10T00:24:17.634Z,14.61
2023-05-10T00:26:49.316Z,14.58
2023-05-10T00:29:15.911Z,14.54
2023-05-10T00:31:42.543Z,14.51
2023-05-10T00:34:09.998Z,14.49
2023-05-10T00:36:36.581Z,14.40
2023-05-10T00:39:04.972Z,14.35
2023-05-10T00:41:34.772Z,14.26
2023-05-10T00:44:05.263Z,14.27
2023-05-10T00:46:32.093Z,14.25
2023-05-10T00:49:03.401Z,14.16
2023-05-10T00:51:30.160Z,14.14
2023-05-10T00:54:01.661Z,14.13
2023-05-10T00:56:29.633Z,14.15
2023-05-10T00:58:56.625Z,14.14
2023-05-10T01:01:23.757Z,14.16
2023-05-10T01:03:55.846Z,14.08
2023-05-10T01:06:22.499Z,13.99
2023-05-10T01:08:49.155Z,13.99
2023-05-10T01:11:16.202Z,13.93
2023-05-10T01:13:43.807Z,13.86
2023-05-10T01:16:10.511Z,13.80
2023-05-10T01:18:38.056Z,13.71
2023-05-10T01:21:07.864Z,13.68
2023-05-10T01:23:52.836Z,13.65
2023-05-10T01:26:25.275Z,13.65
2023-05-10T01:28:57.624Z,13.66
2023-05-10T01:31:46.115Z,13.67
2023-05-10T01:34:21.746Z,13.59
2023-05-10T01:36:48.406Z,13.57
2023-05-10T01:39:21.770Z,13.60
2023-05-10T01:42:00.635Z,13.53
2023-05-10T01:44:31.007Z,13.56
2023-05-10T01:47:23.969Z,13.55
2023-05-10T01:49:54.018Z,13.47
2023-05-10T01:52:26.036Z,13.49
2023-05-10T01:54:55.654Z,13.53
2023-05-10T01:57:23.044Z,13.55
2023-05-10T01:59:52.185Z,13.69
2023-05-10T02:02:20.109Z,13.74
2023-05-10T02:04:49.141Z,13.78
2023-05-10T02:07:15.828Z,13.81
2023-05-10T02:09:45.410Z,13.85
2023-05-10T02:12:17.219Z,13.91
2023-05-10T02:14:43.821Z,13.91
2023-05-10T02:17:10.766Z,13.94
2023-05-10T02:19:38.312Z,13.95
2023-05-10T02:22:10.412Z,13.94
2023-05-10T02:24:37.236Z,13.92
2023-05-10T02:27:04.049Z,13.89
2023-05-10T02:29:30.714Z,13.85
2023-05-10T02:31:59.756Z,13.82
2023-05-10T02:34:29.067Z,13.78
2023-05-10T02:36:58.605Z,13.89
2023-05-10T02:39:26.024Z,13.92
2023-05-10T02:41:52.723Z,13.87
2023-05-10T02:44:20.223Z,13.93
2023-05-10T02:46:49.505Z,13.98
2023-05-10T02:49:16.417Z,13.98
2023-05-10T02:51:47.793Z,13.99
2023-05-10T02:54:17.000Z,13.97
2023-05-10T02:56:44.671Z,14.01
2023-05-10T02:59:13.549Z,13.94
2023-05-10T03:01:40.371Z,13.98
2023-05-10T03:04:09.624Z,13.95
2023-05-10T03:06:36.259Z,13.99
2023-05-10T03:09:04.418Z,13.99
2023-05-10T03:11:50.498Z,14.05
2023-05-10T03:14:46.706Z,14.03
2023-05-10T03:17:26.194Z,13.92
2023-05-10T03:19:58.766Z,13.80
2023-05-10T03:22:28.846Z,13.63
2023-05-10T03:24:58.670Z,13.66
2023-05-10T03:27:28.429Z,13.66
2023-05-10T03:29:56.200Z,13.65
2023-05-10T03:32:25.631Z,13.64
2023-05-10T03:34:52.246Z,13.59
2023-05-10T03:37:21.429Z,13.58
2023-05-10T03:39:50.460Z,13.55
2023-05-10T03:42:18.889Z,13.61
2023-05-10T03:44:50.554Z,13.61
2023-05-10T03:47:17.754Z,13.59
2023-05-10T03:49:44.499Z,13.57
2023-05-10T03:52:17.055Z,13.51
2023-05-10T03:54:43.730Z,13.51
2023-05-10T03:57:10.720Z,13.58
2023-05-10T03:59:37.479Z,13.59
2023-05-10T04:02:07.002Z,13.58
2023-05-10T04:04:33.761Z,13.55
2023-05-10T04:07:00.445Z,13.53
2023-05-10T04:09:27.428Z,13.54
2023-05-10T04:11:54.069Z,13.59
2023-05-10T04:14:20.722Z,13.62
2023-05-10T04:16:50.195Z,13.58
2023-05-10T04:19:16.853Z,13.64
2023-05-10T04:21:45.742Z,13.65
2023-05-10T04:24:13.532Z,13.69
2023-05-10T04:26:40.222Z,13.74
2023-05-10T04:29:06.802Z,13.79
2023-05-10T04:31:37.398Z,13.74
2023-05-10T04:34:04.088Z,13.64
2023-05-10T04:36:30.761Z,13.61
2023-05-10T04:38:59.772Z,13.63
2023-05-10T04:41:26.451Z,13.59
2023-05-10T04:43:53.108Z,13.57
2023-05-10T04:46:19.828Z,13.55
2023-05-10T04:48:46.601Z,13.58
2023-05-10T04:51:13.396Z,13.62
2023-05-10T04:53:39.981Z,13.62
2023-05-10T04:59:00.225Z,13.62
2023-05-10T05:01:29.758Z,13.65
2023-05-10T05:03:56.590Z,13.67
2023-05-10T05:06:23.401Z,13.73
2023-05-10T05:08:50.830Z,13.75
2023-05-10T05:11:17.962Z,13.75
2023-05-10T05:13:44.711Z,13.76
2023-05-10T05:16:12.417Z,13.71
2023-05-10T05:18:41.466Z,13.82
2023-05-10T05:21:14.737Z,13.64
2023-05-10T05:23:44.021Z,13.71
2023-05-10T05:26:10.759Z,13.73
2023-05-10T05:28:40.074Z,13.79
2023-05-10T05:31:11.976Z,13.93
2023-05-10T05:33:41.126Z,14.12
2023-05-10T05:36:09.324Z,14.27
2023-05-10T05:38:36.339Z,14.42
2023-05-10T05:41:03.674Z,14.52
2023-05-10T05:43:34.566Z,14.51
2023-05-10T05:46:04.317Z,14.56
2023-05-10T05:48:31.281Z,14.65
2023-05-10T05:50:58.077Z,14.54
2023-05-10T05:53:27.231Z,14.42
2023-05-10T05:55:58.169Z,14.30
2023-05-10T05:58:25.272Z,14.20
2023-05-10T06:00:53.010Z,14.20
2023-05-10T06:03:19.901Z,14.24
2023-05-10T06:05:51.569Z,14.22
2023-05-10T06:08:18.372Z,14.23
2023-05-10T06:10:45.614Z,14.27
2023-05-10T06:13:14.664Z,14.30
2023-05-10T06:15:41.364Z,14.41
2023-05-10T06:18:08.101Z,14.44
2023-05-10T06:20:34.837Z,14.33
2023-05-10T06:23:01.476Z,14.33
2023-05-10T06:25:30.320Z,14.23
2023-05-10T06:27:59.005Z,14.21
2023-05-10T06:30:28.541Z,14.53
2023-05-10T06:32:57.733Z,14.86
2023-05-10T06:35:27.162Z,15.03
2023-05-10T06:37:54.211Z,15.20
2023-05-10T06:40:23.334Z,15.28
2023-05-10T06:42:52.364Z,15.35
2023-05-10T06:45:19.547Z,15.33
2023-05-10T06:47:47.236Z,15.34
2023-05-10T06:50:16.435Z,15.20
2023-05-10T06:52:44.218Z,14.92
2023-05-10T06:55:13.587Z,14.89
2023-05-10T06:57:40.360Z,14.96
2023-05-10T07:00:07.400Z,14.96
2023-05-10T07:02:36.597Z,15.03
2023-05-10T07:05:03.765Z,15.28
2023-05-10T07:07:30.874Z,15.57
2023-05-10T07:10:01.103Z,15.70
2023-05-10T07:12:27.855Z,15.76
2023-05-10T07:14:59.323Z,15.71
2023-05-10T07:17:26.232Z,15.62
2023-05-10T07:19:52.997Z,15.74
2023-05-10T07:22:22.547Z,15.93
2023-05-10T07:24:49.503Z,16.12
2023-05-10T07:27:16.079Z,16.11
2023-05-10T07:29:43.178Z,16.19
2023-05-10T07:32:12.192Z,16.37
2023-05-10T07:34:41.319Z,16.67
2023-05-10T07:37:08.437Z,16.87
2023-05-10T07:39:35.478Z,16.86
2023-05-10T07:42:02.075Z,16.79
2023-05-10T07:44:28.653Z,16.92
2023-05-10T07:46:57.651Z,17.01
2023-05-10T07:49:27.259Z,17.12
2023-05-10T07:51:56.458Z,17.14
2023-05-10T07:54:23.459Z,17.18
2023-05-10T07:56:52.706Z,17.23
2023-05-10T07:59:19.681Z,17.50
2023-05-10T08:01:46.744Z,17.82
2023-05-10T08:04:18.645Z,17.97
2023-05-10T08:06:48.296Z,17.93
2023-05-10T08:09:16.996Z,18.02
2023-05-10T08:11:46.828Z,18.35
2023-05-10T08:14:15.878Z,18.61
2023-05-10T08:16:45.431Z,18.83
2023-05-10T08:19:12.183Z,19.00
2023-05-10T08:21:39.244Z,19.02
2023-05-10T08:24:05.999Z,18.96
2023-05-10T08:26:33.469Z,18.90
2023-05-10T08:29:00.134Z,19.01
2023-05-10T08:31:26.842Z,19.21
2023-05-10T08:33:53.763Z,19.33
2023-05-10T08:36:25.427Z,19.54
2023-05-10T08:38:53.209Z,19.58
2023-05-10T08:41:22.802Z,19.53
2023-05-10T08:43:51.818Z,19.42
2023-05-10T08:46:19.318Z,19.56
2023-05-10T08:48:46.618Z,19.80
2023-05-10T08:51:20.660Z,19.87
2023-05-10T08:53:47.296Z,19.73
2023-05-10T08:56:14.005Z,19.89
2023-05-10T08:58:46.209Z,20.19
2023-05-10T09:01:12.953Z,20.23
2023-05-10T09:03:39.688Z,20.42
2023-05-10T09:06:08.960Z,20.30
2023-05-10T09:08:35.860Z,20.38
2023-05-10T09:11:02.766Z,20.49
2023-05-10T09:13:29.388Z,20.65
2023-05-10T09:15:56.388Z,20.80
2023-05-10T09:18:27.831Z,20.90
2023-05-10T09:20:54.768Z,20.80
2023-05-10T09:23:21.618Z,20.52
2023-05-10T09:25:50.508Z,20.40
2023-05-10T09:28:19.638Z,20.63
2023-05-10T09:30:46.409Z,21.11
2023-05-10T09:33:13.216Z,21.38
2023-05-10T09:35:41.207Z,21.35
2023-05-10T09:38:07.902Z,21.09
2023-05-10T09:40:34.732Z,21.12
2023-05-10T09:43:05.090Z,21.41
2023-05-10T09:45:32.303Z,21.77
2023-05-10T09:47:59.873Z,22.09
2023-05-10T09:50:26.725Z,22.09
2023-05-10T09:53:00.874Z,21.92
2023-05-10T09:55:39.906Z,21.33
2023-05-10T09:58:10.515Z,21.21
2023-05-10T10:00:37.890Z,21.67
2023-05-10T10:03:07.396Z,21.97
2023-05-10T10:05:34.901Z,22.21
2023-05-10T10:08:04.711Z,22.23
2023-05-10T10:10:32.184Z,22.22
2023-05-10T10:12:58.982Z,22.54
2023-05-10T10:15:30.238Z,22.71
2023-05-10T10:17:57.089Z,22.55
2023-05-10T10:20:26.521Z,22.06
2023-05-10T10:22:53.773Z,22.14
2023-05-10T10:25:21.182Z,22.79
2023-05-10T10:27:54.139Z,23.16
2023-05-10T10:30:30.715Z,23.27
2023-05-10T10:33:13.265Z,23.20
2023-05-10T10:35:46.623Z,22.87
2023-05-10T10:38:18.816Z,22.92
2023-05-10T10:40:50.471Z,22.94
2023-05-10T10:43:28.249Z,23.07
2023-05-10T10:46:16.204Z,23.39
2023-05-10T10:48:52.742Z,23.63
2023-05-10T10:51:21.295Z,24.00
2023-05-10T10:53:48.857Z,23.91
2023-05-10T10:56:16.910Z,24.12
2023-05-10T10:58:43.506Z,24.52
2023-05-10T11:01:19.451Z,24.94
2023-05-10T11:04:01.579Z,25.42
2023-05-10T11:06:35.521Z,25.72
2023-05-10T11:09:12.421Z,25.90
2023-05-10T11:11:59.180Z,26.07
2023-05-10T11:14:25.840Z,26.10
2023-05-10T11:16:55.045Z,25.68
2023-05-10T11:19:21.673Z,24.65
2023-05-10T11:21:49.242Z,23.67
2023-05-10T11:24:23.090Z,23.66
2023-05-10T11:26:54.811Z,23.98
2023-05-10T11:29:21.515Z,24.42
2023-05-10T11:31:50.812Z,24.05
2023-05-10T11:34:26.499Z,23.49
2023-05-10T11:36:56.308Z,23.30
2023-05-10T11:39:31.248Z,23.28
2023-05-10T11:41:58.508Z,23.30
2023-05-10T11:44:30.224Z,23.25
2023-05-10T11:46:59.153Z,23.28
2023-05-10T11:49:25.861Z,23.28
2023-05-10T11:51:52.455Z,23.27
2023-05-10T11:54:19.847Z,23.22
2023-05-10T11:56:46.579Z,23.04
2023-05-10T11:59:14.964Z,22.95
2023-05-10T12:01:49.729Z,22.85
2023-05-10T12:04:16.402Z,22.66
2023-05-10T12:06:43.176Z,22.55
2023-05-10T12:09:09.767Z,22.64
2023-05-10T12:11:43.982Z,22.78
2023-05-10T12:14:11.662Z,22.98
2023-05-10T12:16:41.729Z,23.16
2023-05-10T12:19:11.160Z,23.78
2023-05-10T12:21:42.439Z,24.39
2023-05-10T12:24:11.595Z,24.34
2023-05-10T12:26:56.315Z,24.32
2023-05-10T12:29:23.791Z,24.29
2023-05-10T12:31:59.566Z,24.19
2023-05-10T12:34:34.739Z,23.99
2023-05-10T12:37:04.060Z,24.15
2023-05-10T12:39:43.784Z,24.47
2023-05-10T12:42:10.674Z,24.78
2023-05-10T12:44:37.314Z,25.20
2023-05-10T12:47:03.987Z,26.62
2023-05-10T12:49:30.713Z,28.67
2023-05-10T12:51:57.436Z,28.40
2023-05-10T12:54:26.800Z,27.86
2023-05-10T12:56:55.158Z,26.45
2023-05-10T12:59:21.930Z,25.59
2023-05-10T13:01:51.102Z,25.42
2023-05-10T13:04:17.809Z,25.34
2023-05-10T13:06:47.320Z,25.41
2023-05-10T13:09:13.964Z,25.45
2023-05-10T13:11:40.693Z,25.74
2023-05-10T13:14:15.574Z,26.20
2023-05-10T13:16:42.247Z,27.32
2023-05-10T13:19:12.589Z,28.04
2023-05-10T13:21:39.298Z,28.02
2023-05-10T13:24:08.414Z,27.97
2023-05-10T13:26:37.542Z,28.55
2023-05-10T13:29:04.370Z,30.15
2023-05-10T13:31:31.070Z,30.45
2023-05-10T13:33:57.709Z,30.21
2023-05-10T13:36:24.391Z,29.28
2023-05-10T13:38:51.194Z,28.20
2023-05-10T13:41:20.178Z,27.06
2023-05-10T13:43:46.853Z,26.83
2023-05-10T13:46:13.514Z,27.10
2023-05-10T13:48:40.214Z,27.34
2023-05-10T13:51:11.707Z,27.43
2023-05-10T13:53:38.354Z,27.80
2023-05-10T13:56:04.974Z,28.50
2023-05-10T13:58:31.560Z,28.58
2023-05-10T14:00:58.328Z,29.29
2023-05-10T14:03:25.069Z,30.06
2023-05-10T14:05:54.165Z,31.94
2023-05-10T14:08:27.164Z,32.99
2023-05-10T14:10:56.160Z,32.48
2023-05-10T14:13:22.867Z,32.20
2023-05-10T14:15:49.539Z,31.25
2023-05-10T14:18:20.894Z,29.91
2023-05-10T14:20:52.313Z,30.29
2023-05-10T14:23:24.998Z,31.74
2023-05-10T14:25:56.283Z,33.02
2023-05-10T14:28:26.067Z,32.60
2023-05-10T14:31:00.010Z,31.55
2023-05-10T14:33:36.404Z,31.88
2023-05-10T14:36:12.608Z,32.58
2023-05-10T14:38:42.069Z,32.25
2023-05-10T14:41:10.543Z,31.65
2023-05-10T14:43:40.843Z,30.97
2023-05-10T14:46:07.695Z,30.50
2023-05-10T14:48:34.362Z,31.61
2023-05-10T14:51:00.924Z,33.28
2023-05-10T14:53:33.707Z,34.69
2023-05-10T14:56:02.201Z,34.44
2023-05-10T14:58:28.991Z,33.44
2023-05-10T15:00:58.215Z,31.99
2023-05-10T15:03:30.326Z,30.60
2023-05-10T15:05:59.926Z,29.36
2023-05-10T15:08:29.109Z,28.44
2023-05-10T15:10:56.916Z,27.64
2023-05-10T15:13:23.569Z,27.04
2023-05-10T15:15:50.298Z,26.55
2023-05-10T15:18:21.572Z,26.09
2023-05-10T15:20:48.324Z,25.73
2023-05-10T15:23:19.641Z,25.48
2023-05-10T15:25:46.310Z,25.20
2023-05-10T15:28:13.026Z,25.06
2023-05-10T15:30:39.826Z,24.81
2023-05-10T15:33:06.834Z,24.70
2023-05-10T15:35:34.434Z,24.59
2023-05-10T15:38:01.052Z,24.46
2023-05-10T15:40:30.640Z,24.44
2023-05-10T15:42:57.252Z,24.26
2023-05-10T15:45:28.730Z,24.11
2023-05-10T15:47:57.973Z,23.98
2023-05-10T15:50:27.605Z,23.95
2023-05-10T15:52:54.303Z,23.89
2023-05-10T15:55:21.001Z,23.76
2023-05-10T15:57:50.525Z,23.68
2023-05-10T16:00:17.875Z,23.57
2023-05-10T16:02:44.500Z,23.49
2023-05-10T16:05:14.043Z,23.43
2023-05-10T16:07:42.046Z,23.46
2023-05-10T16:10:10.052Z,23.48
2023-05-10T16:12:39.779Z,23.38
2023-05-10T16:15:08.989Z,23.29
2023-05-10T16:17:36.056Z,23.16
2023-05-10T16:20:05.949Z,23.09
2023-05-10T16:22:35.370Z,23.08
2023-05-10T16:25:05.012Z,23.10
2023-05-10T16:27:34.138Z,23.09
2023-05-10T16:30:03.681Z,23.07
2023-05-10T16:32:33.354Z,23.01
2023-05-10T16:35:00.412Z,22.92
2023-05-10T16:37:27.434Z,22.78
2023-05-10T16:39:56.765Z,22.67
2023-05-10T16:42:28.613Z,22.59
2023-05-10T16:44:55.284Z,22.47
2023-05-10T16:47:27.495Z,22.30
2023-05-10T16:49:54.243Z,22.16
2023-05-10T16:52:21.006Z,22.02
2023-05-10T16:54:47.630Z,21.90
2023-05-10T16:57:16.858Z,21.84
2023-05-10T16:59:43.649Z,21.77
2023-05-10T17:02:13.973Z,21.71
2023-05-10T17:04:40.769Z,21.65
2023-05-10T17:07:09.117Z,21.54
2023-05-10T17:09:35.887Z,21.40
2023-05-10T17:12:05.012Z,21.25
2023-05-10T17:14:31.905Z,21.12
2023-05-10T17:17:05.874Z,21.04
2023-05-10T17:19:35.579Z,20.90
2023-05-10T17:22:04.750Z,20.78
2023-05-10T17:24:31.811Z,20.66
2023-05-10T17:27:00.831Z,20.62
2023-05-10T17:29:31.972Z,20.55
2023-05-10T17:31:59.011Z,20.53
2023-05-10T17:34:25.835Z,20.43
2023-05-10T17:36:52.489Z,20.35
2023-05-10T17:39:24.000Z,20.32
2023-05-10T17:41:50.794Z,20.28
2023-05-10T17:44:17.527Z,20.13
2023-05-10T17:46:44.312Z,20.04
2023-05-10T17:49:10.996Z,20.00
2023-05-10T17:51:37.790Z,19.91
2023-05-10T17:54:07.289Z,19.83
2023-05-10T17:56:33.881Z,19.77
2023-05-10T17:59:02.993Z,19.71
2023-05-10T18:01:29.773Z,19.62
2023-05-10T18:03:56.394Z,19.49
2023-05-10T18:06:23.563Z,19.38
2023-05-10T18:08:52.722Z,19.28
2023-05-10T18:11:19.335Z,19.21
2023-05-10T18:13:45.970Z,19.17
2023-05-10T18:16:17.705Z,19.06
2023-05-10T18:18:44.797Z,18.99
2023-05-10T18:21:14.138Z,18.90
2023-05-10T18:23:40.772Z,18.80
2023-05-10T18:26:10.504Z,18.71
2023-05-10T18:28:39.457Z,18.58
2023-05-10T18:31:06.113Z,18.55
2023-05-10T18:33:38.618Z,18.52
2023-05-10T18:36:05.402Z,18.43
2023-05-10T18:38:34.545Z,18.36
2023-05-10T18:41:01.587Z,18.28
2023-05-10T18:43:30.689Z,18.31
2023-05-10T18:45:57.384Z,18.27
2023-05-10T18:48:26.447Z,18.23
2023-05-10T18:50:53.084Z,18.17
2023-05-10T18:53:24.900Z,18.16
2023-05-10T18:56:00.893Z,18.19
2023-05-10T18:58:27.898Z,18.14
2023-05-10T19:00:58.643Z,18.14
2023-05-10T19:03:27.600Z,18.08
2023-05-10T19:05:57.135Z,18.05
2023-05-10T19:08:23.743Z,18.03
2023-05-10T19:10:50.931Z,18.01
2023-05-10T19:13:17.919Z,18.00
2023-05-10T19:15:44.595Z,17.96
2023-05-10T19:18:15.307Z,17.95
2023-05-10T19:20:42.533Z,17.96
2023-05-10T19:23:10.416Z,17.90
2023-05-10T19:25:37.603Z,17.88
2023-05-10T19:28:11.511Z,17.85
2023-05-10T19:30:38.583Z,17.84
2023-05-10T19:33:10.481Z,17.78
2023-05-10T19:35:40.265Z,17.74
2023-05-10T19:38:07.095Z,17.77
2023-05-10T19:40:34.213Z,17.73
2023-05-10T19:43:00.830Z,17.69
2023-05-10T19:45:30.320Z,17.67
2023-05-10T19:47:57.141Z,17.72
2023-05-10T19:50:23.820Z,17.69
2023-05-10T19:52:51.593Z,17.65
2023-05-10T19:55:26.249Z,17.56
2023-05-10T19:57:53.007Z,17.56
2023-05-10T20:00:20.067Z,17.59
2023-05-10T20:02:46.694Z,17.56
2023-05-10T20:05:13.427Z,17.52
2023-05-10T20:07:39.987Z,17.53
2023-05-10T20:10:06.976Z,17.48
2023-05-10T20:12:33.661Z,17.44
2023-05-10T20:15:00.220Z,17.35
2023-05-10T20:17:29.240Z,17.38
2023-05-10T20:19:55.840Z,17.33
2023-05-10T20:22:22.551Z,17.32
2023-05-10T20:24:49.155Z,17.27
2023-05-10T20:27:16.094Z,17.26
2023-05-10T20:29:45.168Z,17.25
2023-05-10T20:32:14.385Z,17.25
2023-05-10T20:34:45.815Z,17.25
2023-05-10T20:37:13.432Z,17.20
2023-05-10T20:39:42.450Z,17.15
2023-05-10T20:42:09.170Z,17.11
2023-05-10T20:44:36.025Z,17.10
2023-05-10T20:47:02.682Z,17.12
2023-05-10T20:49:31.791Z,17.09
2023-05-10T20:51:58.455Z,17.06
2023-05-10T20:54:25.101Z,16.97
2023-05-10T20:56:51.687Z,16.96
2023-05-10T20:59:18.735Z,16.92
2023-05-10T21:01:49.884Z,16.84
2023-05-10T21:04:19.437Z,16.83
2023-05-10T21:06:46.188Z,16.88
2023-05-10T21:09:15.761Z,16.93
2023-05-10T21:11:44.729Z,16.93
2023-05-10T21:14:11.417Z,16.88
2023-05-10T21:16:38.199Z,16.89
2023-05-10T21:19:07.706Z,16.90
2023-05-10T21:21:36.872Z,16.89
2023-05-10T21:24:05.914Z,16.90
2023-05-10T21:26:32.593Z,16.91
2023-05-10T21:29:01.803Z,16.88
2023-05-10T21:31:28.782Z,16.89
2023-05-10T21:33:55.409Z,16.91
2023-05-10T21:36:22.110Z,16.92
2023-05-10T21:38:50.878Z,16.96
2023-05-10T21:41:17.627Z,16.86
2023-05-10T21:43:44.180Z,16.67
2023-05-10T21:46:13.064Z,16.66
2023-05-10T21:48:39.925Z,16.74
2023-05-10T21:51:07.215Z,16.81
2023-05-10T21:53:34.129Z,16.82
2023-05-10T21:56:00.819Z,16.84
2023-05-10T21:58:27.778Z,16.78
2023-05-10T22:00:54.627Z,16.74
2023-05-10T22:03:26.656Z,16.79
2023-05-10T22:05:53.440Z,16.84
2023-05-10T22:08:20.105Z,16.85
2023-05-10T22:10:46.815Z,16.87
2023-05-10T22:13:13.525Z,16.83
2023-05-10T22:15:40.207Z,16.86
2023-05-10T22:18:06.848Z,16.90
2023-05-10T22:20:35.810Z,16.90
2023-05-10T22:23:02.803Z,16.93
2023-05-10T22:25:29.372Z,16.90
2023-05-10T22:27:55.978Z,16.85
2023-05-10T22:30:23.009Z,16.87
2023-05-10T22:32:49.586Z,16.85
2023-05-10T22:35:18.630Z,16.86
2023-05-10T22:37:50.675Z,16.88
2023-05-10T22:40:17.553Z,16.91
2023-05-10T22:42:44.311Z,16.84
2023-05-10T22:45:13.774Z,16.80
2023-05-10T22:47:42.826Z,16.78
2023-05-10T22:50:11.866Z,16.71
2023-05-10T22:52:41.286Z,16.56
2023-05-10T22:55:08.460Z,16.54
2023-05-10T22:57:37.601Z,16.56
2023-05-10T23:00:05.350Z,16.53
2023-05-10T23:02:32.174Z,16.46
2023-05-10T23:05:01.207Z,16.49
2023-05-10T23:07:30.211Z,16.50
2023-05-10T23:09:56.966Z,16.46
2023-05-10T23:12:23.756Z,16.46
2023-05-10T23:14:50.661Z,16.28
2023-05-10T23:17:17.392Z,16.23
2023-05-10T23:19:46.362Z,16.25
2023-05-10T23:22:15.103Z,16.20
2023-05-10T23:24:44.194Z,16.19
2023-05-10T23:27:11.363Z,16.18
2023-05-10T23:29:38.006Z,16.08
2023-05-10T23:32:04.830Z,16.07
2023-05-10T23:34:32.322Z,15.97
2023-05-10T23:37:01.523Z,15.92
2023-05-10T23:39:28.324Z,15.94
2023-05-10T23:41:57.382Z,15.87
2023-05-10T23:44:26.876Z,15.92
2023-05-10T23:46:53.566Z,15.99
2023-05-10T23:49:22.876Z,16.03
2023-05-10T23:51:52.480Z,16.07
2023-05-10T23:54:24.454Z,16.10
2023-05-10T23:56:51.622Z,16.10
2023-05-10T23:59:20.759Z,16.08
